This is the latest recevied weather packets stored in our database for station/object NW6UP. If no packets are shown the sender has not sent any weather packets the latest 10 day(s).
| Time | Temp. | Humidity | Pressure | Rain* | Wind** | Luminosity | Snow |
|---|---|---|---|---|---|---|---|
| 1778004267 | 15.56° C | 67% | 0 hPa | 0 mm | - | - | - |
| 1778003066 | 15.56° C | 66% | 0 hPa | 0 mm | - | - | - |
| 1778001868 | 15.56° C | 65% | 1015.3 hPa | 0 mm | - | - | - |
| 1778000668 | 15° C | 66% | 0 hPa | 0 mm | - | - | - |
| 1777999468 | 14.44° C | 67% | 0 hPa | 0 mm | - | - | - |
| 1777997065 | 13.89° C | 72% | 0 hPa | 0 mm | - | - | - |
| 1777995867 | 13.33° C | 75% | 1014.7 hPa | 0 mm | - | - | - |
| 1777994666 | 12.78° C | 76% | 1014.6 hPa | 0 mm | - | - | - |
| 1777991066 | 11.67° C | 82% | 0 hPa | 0 mm | - | - | - |
| 1777989868 | 11.67° C | 84% | 1014.1 hPa | 0 mm | - | - | - |
| 1777988665 | 11.67° C | 82% | 1014.1 hPa | 0 mm | - | - | - |
| 1777987468 | 11.11° C | 88% | 0 hPa | 0 mm | - | - | - |
| 1777986267 | 11.11° C | 87% | 1014.3 hPa | 0 mm | - | - | - |
| 1777985066 | 11.11° C | 85% | 1014.6 hPa | 0 mm | - | - | - |
| 1777983870 | 11.11° C | 84% | 0 hPa | 0 mm | - | - | - |
| 1777982665 | 11.11° C | 87% | 1014.4 hPa | 0 mm | - | - | - |
| 1777981466 | 11.11° C | 87% | 0 hPa | 0 mm | - | - | - |
| 1777980266 | 11.11° C | 84% | 0 hPa | 0 mm | - | - | - |
| 1777979066 | 11.67° C | 81% | 1014.6 hPa | 0 mm | - | - | - |
| 1777976666 | 11.67° C | 80% | 0 hPa | 0 mm | - | - | - |
| 1777975466 | 11.67° C | 79% | 0 hPa | 0 mm | - | - | - |
| 1777974266 | 12.22° C | 76% | 0 hPa | 0 mm | - | - | - |
| 1777973066 | 12.22° C | 72% | 1014.5 hPa | 0 mm | - | - | - |
| 1777971866 | 12.22° C | 69% | 1014.7 hPa | 0 mm | - | - | - |
| 1777970667 | 12.22° C | 69% | 1015.1 hPa | 0 mm | - | - | - |
* Rain latest hour (hover to see other rain measurements)
** Current wind speed in m/s (hover to see current wind gust speed)